Enchant, Canada
Current Conditions -  °F | °C
As of 9:00 PM on Tuesday 27 Jan 2015 (Local Time) from CYQL Reporting Station
Scattered Clouds Scattered Clouds  
Wind Chill: 50°   Ceiling: Unl
Heat Index: 50°   Visibility: 15mi
Dew Point: 25°   Wind: 23mph
Humidity: 37%   Direction: 250°WSW
Pressure: 29.78"   Gusts: 29mph
Location:  50.17°N, 112.42°W
Report Text: CYQL 280400Z 25020G25KT 15SM FEW100 SCT270 10/M04 A2978 RMK AC1CI3 SLP095 DENSITY ALT 3300FT
Loading
Personal Weather Stations






























Interactive Weather Map New forecast layout! Learn more

10-Day Weather Forecast

Advertisements
Track Severe Weather on mobile